Heydar Aliyev International Airport
UBBB : now visible

Airfield :











YOU CAN JOIN US ON...

 
LOGIN :

Register | Disclaimer

   EN    FR    IT 

 









Legend :    VFR   Marginal VFR   IFR   Intensive IFR   Very Intensive IFR
Visi :
Ceiling :
>= 8 km
>= 3000ft
5 to 8 km
1000 to 3000 ft
1500m to 5 km
500 to 1000 ft
800 to 1500m
200 to 500 ft
< 800m
< 200 ft
Symbols :   Thunderstorms  Fog  Heavy snow  Heavy precipitations  Wind > 20 kt







- Airport Elevation : 10 ft
- IATA code : GYD


UBBB - Heydar Aliyev International

CURRENT METAR :
  • 180630Z 22009KT CAVOK 11/03 Q1008 R88/CLRD// NOSIG

EXPIRED METARs :
  • 180600Z 20005KT CAVOK 11/03 Q1009 R88/190068 NOSIG
  • 180530Z 00000KT CAVOK 09/05 Q1009 R88/190068 NOSIG
  • 180500Z 11002KT CAVOK 06/04 Q1009 R88/190068 NOSIG
  • 180430Z VRB02KT CAVOK 04/03 Q1009 R88/190068 NOSIG
  • 180400Z VRB02KT CAVOK 03/02 Q1009 R16/190068 R17/190065 NOSIG

TAF TAF UBBB
Valid from the 18 at 06:00 until the 19 at 06:00 UTC


180519Z 1806/1906 19010KT 9999 SCT025 BKN100 TX07/1811Z TN03/1903Z
TEMPO 1806/1809 23016KT SCT012
BECMG 1809/1811 33014KT SCT010 BKN023
TEMPO 1814/1820 02014KT 5000 -RA BKN008 OVC017
BECMG 1820/1822 34020G30KT
UBBA FIR / Asia



MET'MAP, your aeronautical weather chart ! - Copyright ORBIFLY December 2007 - Disclaimer

ORBIFLY MET'MAP TEAM :

Programming & Development : Alexandra Zaïnal
Concept & Development : Baudouin d'Aumeries
Co-Development & Prog : Marc-Olivier Méhu
Technical & hardware support : Manuel Goepfert

Contact : metmap@orbifly.com




SOURCES & CREDITS :

   NOAA       Earth
Advisory